Airfield :
LOGIN :

Register | Disclaimer

   EN    FR    IT 

 










Legend :    VFR   Marginal VFR   IFR   Intensive IFR   Very Intensive IFR
Visi :
Ceiling :
>= 8 km
>= 3000ft
5 to 8 km
1000 to 3000 ft
1500m to 5 km
500 to 1000 ft
800 to 1500m
200 to 500 ft
< 800m
< 200 ft
Symbols :   Thunderstorms  Fog  Heavy snow  Heavy precipitations  Wind > 20 kt
SIGMETs :     Misc.  Thunderstorms  Icing  Turbulence  Mountain Waves  Volcanic Ashes







- Airport Elevation : 779 ft
- IATA code : CMF
- Download approach charts


LFLB - Chambery / Aix-Les-Bains

CURRENT METAR :
  • 171830Z AUTO 07005KT 030V130 9999 FEW016 SCT028 BKN037 04/02 Q1016 TEMPO 4000 SHRA BKN014

EXPIRED METARs :
  • 171800Z AUTO 32005KT 280V020 9999 -RA FEW017/// SCT033/// BKN046/// ///TCU 05/03 Q1016 TEMPO 4000 SHRA BKN014
  • 171730Z AUTO 19004KT 170V230 9999 BKN047/// BKN054/// OVC072/// ///CB 05/03 Q1015 TEMPO 4000 SHRA BKN014
  • 171700Z AUTO 21006KT 9999 FEW049/// BKN066/// OVC076/// ///TCU 05/03 Q1015 TEMPO 4000 SHRA
  • 171630Z AUTO 21007KT 190V280 9999 BKN046 BKN052 OVC074 05/04 Q1016 TEMPO 4000 SHRA SCT030TCU
  • 171600Z AUTO 19005KT 140V260 9999 BKN045 BKN052 BKN066 05/04 Q1015 TEMPO 4000 SHRA SCT030TCU

TAF TAF LFLB
Valid from the 17 at 18:00 until the 18 at 18:00 UTC


171700Z 1718/1818 18005KT 9999 BKN040
TEMPO 1718/1803 4000 SHRA BKN014
BECMG 1804/1806 36005KT BKN014
BECMG 1810/1812 36010KT BKN033
No reported NOTAMs for that airfield.



MET'MAP, your aeronautical weather chart ! - Copyright ORBIFLY December 2007 - Disclaimer

ORBIFLY MET'MAP TEAM :

Programming & Development : Alexandra Zaïnal
Concept & Development : Baudouin d'Aumeries
Co-Development & Prog : Marc-Olivier Méhu
Technical & hardware support : Manuel Goepfert

Contact : metmap@orbifly.com




SOURCES & CREDITS :

   NOAA